Time;durP1;ratioP1;P1;durP2;ratioP2;P2;SDS_P1;SDS_P2;PMS_P1;PMS_P2;Temp;Humidity;BMP_temperature;BMP_pressure;BME280_temperature;BME280_humidity;BME280_pressure;Samples;Min_cycle;Max_cycle;Signal;HPM_P1;HPM_P2
2021/04/06 00:00:47;;;;;;;30.90;3.63;;;4.00;99.90;;;;;;5076473;28;20032;-71
2021/04/06 00:03:18;;;;;;;17.83;2.65;;;4.10;99.90;;;;;;5055746;28;20107;-70
2021/04/06 00:05:48;;;;;;;18.15;3.00;;;4.30;99.90;;;;;;5054792;28;20236;-73
2021/04/06 00:08:15;;;;;;;19.15;2.60;;;4.30;99.90;;;;;;5067010;28;20023;-70
2021/04/06 00:10:51;;;;;;;24.02;2.83;;;4.40;99.90;;;;;;5050507;28;20273;-71
2021/04/06 00:13:17;;;;;;;21.55;2.92;;;4.40;99.90;;;;;;5073462;28;20032;-71
2021/04/06 00:15:45;;;;;;;25.58;2.92;;;4.30;99.90;;;;;;5069846;28;20570;-71
2021/04/06 00:18:14;;;;;;;20.77;3.03;;;4.40;99.90;;;;;;5070510;28;20044;-70
2021/04/06 00:20:41;;;;;;;33.40;3.97;;;4.40;99.90;;;;;;5057913;28;20515;-69
2021/04/06 00:23:09;;;;;;;22.33;2.80;;;4.40;99.90;;;;;;5067745;28;20271;-70
2021/04/06 00:25:41;;;;;;;26.45;4.75;;;4.40;99.90;;;;;;5065823;28;20104;-68
2021/04/06 00:28:10;;;;;;;22.77;3.28;;;4.20;99.90;;;;;;5071082;28;20050;-70
2021/04/06 00:30:38;;;;;;;21.33;4.53;;;3.90;99.90;;;;;;5071198;28;20024;-72
2021/04/06 00:33:10;;;;;;;19.48;3.83;;;3.80;99.90;;;;;;5070785;28;20016;-69
2021/04/06 00:35:37;;;;;;;18.75;2.55;;;3.80;99.90;;;;;;5069415;28;20028;-70
2021/04/06 00:38:08;;;;;;;18.17;2.85;;;3.60;99.90;;;;;;5069711;28;20042;-68
2021/04/06 00:40:40;;;;;;;22.23;3.30;;;3.60;99.90;;;;;;5068416;28;20023;-70
2021/04/06 00:43:06;;;;;;;24.25;3.47;;;3.60;99.90;;;;;;5068145;28;20039;-71
2021/04/06 00:45:40;;;;;;;25.90;3.05;;;3.70;99.90;;;;;;5071173;28;20097;-70
2021/04/06 00:48:33;;;;;;;23.50;4.70;;;3.70;99.90;;;;;;5066611;28;20070;-70
2021/04/06 00:51:31;;;;;;;25.55;3.58;;;3.70;99.90;;;;;;5065267;28;20036;-68
2021/04/06 00:54:00;;;;;;;17.63;2.20;;;3.80;99.90;;;;;;5065712;28;20040;-68
2021/04/06 00:56:30;;;;;;;18.60;3.38;;;3.80;99.90;;;;;;5067480;28;20610;-70
2021/04/06 00:58:59;;;;;;;21.55;3.97;;;3.80;99.90;;;;;;5069206;28;20485;-70
2021/04/06 01:01:37;;;;;;;12.23;2.33;;;3.70;99.90;;;;;;5068765;28;20082;-72
2021/04/06 01:04:17;;;;;;;22.73;2.80;;;3.30;99.90;;;;;;5069223;28;20110;-70
2021/04/06 01:07:06;;;;;;;23.45;2.83;;;3.10;99.90;;;;;;5068574;28;20168;-72
2021/04/06 01:09:33;;;;;;;17.85;2.17;;;3.00;99.90;;;;;;5054663;28;20033;-71
2021/04/06 01:12:01;;;;;;;21.50;2.47;;;3.00;99.90;;;;;;5071077;28;20047;-71
2021/04/06 01:14:31;;;;;;;22.42;2.42;;;3.00;99.90;;;;;;5071665;28;20531;-72
2021/04/06 01:16:58;;;;;;;14.65;2.55;;;2.90;99.90;;;;;;5068576;28;20056;-72
2021/04/06 01:19:27;;;;;;;11.27;2.22;;;2.90;99.90;;;;;;5073327;28;20033;-72
2021/04/06 01:21:54;;;;;;;14.65;2.70;;;2.90;99.90;;;;;;5074441;28;20017;-74
2021/04/06 01:24:20;;;;;;;19.13;2.60;;;2.90;99.90;;;;;;5074671;28;20068;-73
2021/04/06 01:26:48;;;;;;;14.77;2.22;;;2.90;99.90;;;;;;5073183;28;20055;-72
2021/04/06 01:29:14;;;;;;;16.95;2.50;;;2.90;99.90;;;;;;5074866;28;20020;-73
2021/04/06 01:31:39;;;;;;;21.10;2.55;;;2.90;99.90;;;;;;5074744;28;20602;-72
2021/04/06 01:34:05;;;;;;;23.58;2.95;;;2.90;99.90;;;;;;5068650;28;20028;-71
2021/04/06 01:36:31;;;;;;;24.98;3.78;;;2.90;99.90;;;;;;5071798;28;20013;-71
2021/04/06 01:38:57;;;;;;;18.60;4.13;;;2.90;99.90;;;;;;5067873;28;20021;-72
2021/04/06 01:41:23;;;;;;;24.17;4.05;;;2.90;99.90;;;;;;5074761;28;20216;-73
2021/04/06 01:43:52;;;;;;;20.48;2.92;;;2.90;99.90;;;;;;5074742;28;20256;-73
2021/04/06 01:46:19;;;;;;;20.90;3.15;;;2.90;99.90;;;;;;5078899;28;20033;-71
2021/04/06 01:48:46;;;;;;;16.55;2.42;;;2.90;99.90;;;;;;5081441;28;20021;-71
2021/04/06 01:51:13;;;;;;;20.17;3.30;;;2.90;99.90;;;;;;5072468;28;20497;-71
2021/04/06 01:53:41;;;;;;;21.42;2.75;;;2.90;99.90;;;;;;5073845;28;20025;-72
2021/04/06 01:56:15;;;;;;;22.20;2.33;;;2.90;99.90;;;;;;5063881;28;20016;-70
2021/04/06 01:58:46;;;;;;;15.20;2.30;;;3.00;99.90;;;;;;5073874;28;20033;-70
2021/04/06 02:01:19;;;;;;;19.77;2.60;;;3.00;99.90;;;;;;5074139;28;20225;-71
2021/04/06 02:03:53;;;;;;;10.55;1.85;;;3.10;99.90;;;;;;5073195;28;20021;-71
2021/04/06 02:06:20;;;;;;;20.60;2.60;;;3.20;99.90;;;;;;5072390;28;20021;-71
2021/04/06 02:08:50;;;;;;;22.08;3.08;;;3.10;99.90;;;;;;5079900;28;20032;-73
2021/04/06 02:11:26;;;;;;;33.92;2.47;;;3.10;99.90;;;;;;5087293;28;20108;-71
2021/04/06 02:13:52;;;;;;;21.60;2.60;;;3.10;99.90;;;;;;5077357;28;20142;-72
2021/04/06 02:16:18;;;;;;;20.85;2.30;;;3.30;99.90;;;;;;5077902;28;20040;-74
2021/04/06 02:18:50;;;;;;;17.85;2.42;;;3.40;99.90;;;;;;5075722;28;20028;-71
2021/04/06 02:21:15;;;;;;;18.65;2.38;;;3.40;99.90;;;;;;5076124;28;20025;-69
2021/04/06 02:23:45;;;;;;;18.92;2.72;;;3.50;99.90;;;;;;5065601;28;20528;-72
2021/04/06 02:26:14;;;;;;;21.17;2.88;;;3.40;99.90;;;;;;5058296;28;20025;-71
2021/04/06 02:28:41;;;;;;;16.95;2.60;;;3.10;99.90;;;;;;5069745;28;20021;-71
2021/04/06 02:31:08;;;;;;;16.25;2.35;;;2.70;99.90;;;;;;5070847;28;20024;-67
2021/04/06 02:33:36;;;;;;;14.85;2.20;;;2.40;99.90;;;;;;5069782;28;20024;-71
2021/04/06 02:36:09;;;;;;;13.65;2.38;;;2.10;99.90;;;;;;5070618;28;20032;-71
2021/04/06 02:38:39;;;;;;;16.92;2.08;;;2.10;99.90;;;;;;5059376;28;20032;-68
2021/04/06 02:41:09;;;;;;;19.35;2.40;;;2.00;99.90;;;;;;5070645;28;20036;-70
2021/04/06 02:44:00;;;;;;;8.70;1.55;;;2.00;99.90;;;;;;5073049;28;20029;-71
2021/04/06 02:46:28;;;;;;;7.90;1.50;;;2.00;99.90;;;;;;5060525;28;20078;-69
2021/04/06 02:48:55;;;;;;;19.08;2.00;;;2.00;99.90;;;;;;5072361;28;20696;-70
2021/04/06 02:51:21;;;;;;;7.97;1.85;;;2.10;99.90;;;;;;5070486;28;20028;-72
2021/04/06 02:53:52;;;;;;;10.10;1.77;;;2.00;99.90;;;;;;5070467;28;20024;-70
2021/04/06 02:56:37;;;;;;;9.40;1.20;;;2.10;99.90;;;;;;5066281;28;20444;-71
2021/04/06 02:59:17;;;;;;;11.52;1.15;;;2.10;99.90;;;;;;5055843;28;20570;-71
2021/04/06 03:01:44;;;;;;;8.30;1.42;;;2.10;99.90;;;;;;5064492;28;20032;-72
2021/04/06 03:04:17;;;;;;;8.75;1.83;;;2.20;99.90;;;;;;5070558;28;20020;-72
2021/04/06 03:06:43;;;;;;;13.73;1.77;;;2.20;99.90;;;;;;5066856;28;20032;-71
2021/04/06 03:09:13;;;;;;;15.77;1.85;;;2.30;99.90;;;;;;5071487;28;20028;-72
2021/04/06 03:11:46;;;;;;;12.30;1.85;;;2.30;99.90;;;;;;5063785;28;20024;-71
2021/04/06 03:14:12;;;;;;;5.43;1.05;;;2.40;99.90;;;;;;5070350;28;20028;-71
2021/04/06 03:16:39;;;;;;;12.02;1.58;;;2.40;99.90;;;;;;5056158;28;20095;-70
2021/04/06 03:19:06;;;;;;;15.20;2.20;;;2.20;99.90;;;;;;5070728;28;20022;-69
2021/04/06 03:21:33;;;;;;;14.13;2.10;;;2.00;99.90;;;;;;5070628;28;20033;-69
2021/04/06 03:24:03;;;;;;;13.23;1.95;;;1.70;99.90;;;;;;5073738;28;20158;-72
2021/04/06 03:26:31;;;;;;;13.98;2.08;;;1.50;99.90;;;;;;5069312;28;20029;-72
2021/04/06 03:28:58;;;;;;;14.52;1.67;;;1.50;99.90;;;;;;5072005;28;20017;-71
2021/04/06 03:31:28;;;;;;;9.50;2.13;;;1.50;99.90;;;;;;5068300;28;20029;-70
2021/04/06 03:33:55;;;;;;;21.02;2.53;;;1.50;99.90;;;;;;5073273;28;20036;-74
2021/04/06 03:36:23;;;;;;;14.88;1.80;;;1.50;99.90;;;;;;5068338;28;20027;-72
2021/04/06 03:38:50;;;;;;;11.85;2.03;;;1.40;99.90;;;;;;5069950;28;20030;-73
2021/04/06 03:41:18;;;;;;;18.50;1.92;;;1.40;99.90;;;;;;5069619;28;20100;-72
2021/04/06 03:43:45;;;;;;;10.15;1.98;;;1.40;99.90;;;;;;5069539;28;20027;-71
2021/04/06 03:46:11;;;;;;;17.75;2.65;;;1.40;99.90;;;;;;5070185;28;20021;-71
2021/04/06 03:48:38;;;;;;;16.40;2.00;;;1.50;99.90;;;;;;5060388;28;20025;-71
2021/04/06 03:51:24;;;;;;;14.68;2.38;;;1.60;99.90;;;;;;5068042;28;20504;-72
2021/04/06 03:53:50;;;;;;;16.70;2.28;;;1.60;99.90;;;;;;5062054;28;20500;-72
2021/04/06 03:56:16;;;;;;;18.52;1.73;;;1.60;99.90;;;;;;5067235;28;20112;-72
2021/04/06 03:58:55;;;;;;;10.75;2.00;;;1.70;99.90;;;;;;5071031;28;20573;-72
2021/04/06 04:01:21;;;;;;;15.98;2.60;;;1.70;99.90;;;;;;5066019;28;20027;-73
2021/04/06 04:03:46;;;;;;;18.13;2.40;;;1.60;99.90;;;;;;5064203;28;20028;-69
2021/04/06 04:06:29;;;;;;;19.52;2.25;;;1.60;99.90;;;;;;5068062;28;20464;-73
2021/04/06 04:08:55;;;;;;;17.15;2.08;;;1.70;99.90;;;;;;5049622;28;20040;-72
2021/04/06 04:11:22;;;;;;;10.30;1.90;;;1.70;99.90;;;;;;5068811;28;20040;-73
2021/04/06 04:13:47;;;;;;;18.23;2.85;;;1.70;99.90;;;;;;5069021;28;20572;-72
2021/04/06 04:16:13;;;;;;;11.30;2.35;;;1.70;99.90;;;;;;5067847;28;20020;-71
2021/04/06 04:18:39;;;;;;;20.17;2.25;;;1.80;99.90;;;;;;5067300;28;20032;-73
2021/04/06 04:21:05;;;;;;;15.52;2.58;;;1.90;99.90;;;;;;5068002;28;20032;-73
2021/04/06 04:23:32;;;;;;;16.50;2.47;;;1.90;99.90;;;;;;5067127;28;20025;-72
2021/04/06 04:25:58;;;;;;;23.02;2.15;;;2.00;99.90;;;;;;5067491;28;20112;-73
2021/04/06 04:28:23;;;;;;;19.95;2.20;;;2.00;99.90;;;;;;5066986;28;20119;-73
2021/04/06 04:30:52;;;;;;;14.15;2.58;;;2.00;99.90;;;;;;5064636;28;20020;-73
2021/04/06 04:33:17;;;;;;;18.27;2.63;;;2.00;99.90;;;;;;5068377;28;20116;-72
2021/04/06 04:35:43;;;;;;;19.20;2.40;;;2.00;99.90;;;;;;5067439;28;20108;-73
2021/04/06 04:38:10;;;;;;;16.10;2.22;;;2.00;99.90;;;;;;5067394;28;20021;-72
2021/04/06 04:40:40;;;;;;;16.92;3.17;;;2.00;99.90;;;;;;5068757;28;20052;-73
2021/04/06 04:43:07;;;;;;;19.15;2.78;;;2.00;99.90;;;;;;5070055;28;20036;-74
2021/04/06 04:45:33;;;;;;;21.15;2.83;;;1.90;99.90;;;;;;5071417;28;20029;-74
2021/04/06 04:47:59;;;;;;;22.38;2.55;;;2.00;99.90;;;;;;5070034;28;20085;-74
2021/04/06 04:50:24;;;;;;;23.38;3.03;;;2.00;99.90;;;;;;5070096;28;20086;-71
2021/04/06 04:52:50;;;;;;;16.05;2.30;;;1.90;99.90;;;;;;5069875;28;20066;-71
2021/04/06 04:55:19;;;;;;;19.42;2.58;;;1.90;99.90;;;;;;5069135;28;20031;-73
2021/04/06 04:57:46;;;;;;;18.65;2.92;;;1.90;99.90;;;;;;5069296;28;20085;-73
2021/04/06 05:00:13;;;;;;;29.48;2.47;;;1.90;99.90;;;;;;5068859;28;20028;-72
2021/04/06 05:02:39;;;;;;;13.98;2.28;;;2.00;99.90;;;;;;5064296;28;20047;-73
2021/04/06 05:05:07;;;;;;;6.68;1.30;;;2.10;99.90;;;;;;5060198;28;20078;-70
2021/04/06 05:07:33;;;;;;;4.20;1.42;;;1.80;99.90;;;;;;5066924;28;20079;-71
2021/04/06 05:09:58;;;;;;;11.43;1.40;;;1.50;99.90;;;;;;5064947;28;20025;-72
2021/04/06 05:12:24;;;;;;;8.63;1.45;;;1.40;99.90;;;;;;5069858;28;20028;-73
2021/04/06 05:14:51;;;;;;;20.05;1.33;;;1.30;99.90;;;;;;5068277;28;20668;-74
2021/04/06 05:17:18;;;;;;;9.95;1.52;;;1.30;99.90;;;;;;5059893;28;20088;-72
2021/04/06 05:19:44;;;;;;;12.93;1.70;;;1.30;99.90;;;;;;5066763;28;20044;-74
2021/04/06 05:22:09;;;;;;;8.23;1.50;;;1.30;99.90;;;;;;5067591;28;20412;-71
2021/04/06 05:24:35;;;;;;;16.10;1.90;;;1.40;99.90;;;;;;5068903;28;20020;-74
2021/04/06 05:27:02;;;;;;;17.00;1.77;;;1.40;99.90;;;;;;5067857;28;20032;-72
2021/04/06 05:29:28;;;;;;;15.27;2.03;;;1.40;99.90;;;;;;5074015;28;20033;-72
2021/04/06 05:31:53;;;;;;;12.60;1.95;;;1.30;99.90;;;;;;5073986;28;20021;-73
2021/04/06 05:34:19;;;;;;;10.73;2.05;;;1.40;99.90;;;;;;5082810;28;20054;-76
2021/04/06 05:36:45;;;;;;;13.02;2.13;;;1.40;99.90;;;;;;5085671;28;20024;-77
2021/04/06 05:39:11;;;;;;;6.90;1.52;;;1.40;99.90;;;;;;5087332;28;20066;-75
2021/04/06 05:41:44;;;;;;;13.68;2.33;;;1.50;99.90;;;;;;5089457;28;20016;-76
2021/04/06 05:44:11;;;;;;;5.32;2.08;;;1.60;99.90;;;;;;5088281;28;20028;-76
2021/04/06 05:46:39;;;;;;;12.00;2.03;;;1.70;99.90;;;;;;5090294;28;20051;-77
2021/04/06 05:49:13;;;;;;;8.50;1.20;;;1.80;99.90;;;;;;5090814;28;20074;-72
2021/04/06 05:51:40;;;;;;;11.90;1.83;;;1.90;99.90;;;;;;5086090;28;20025;-74
2021/04/06 05:54:09;;;;;;;11.70;2.25;;;1.80;99.90;;;;;;5075593;28;20506;-73
2021/04/06 05:56:35;;;;;;;10.70;1.20;;;1.60;99.90;;;;;;5069309;28;20112;-73
2021/04/06 05:59:00;;;;;;;6.22;1.83;;;1.40;99.90;;;;;;5074979;28;20059;-71
2021/04/06 06:01:32;;;;;;;11.65;1.80;;;1.30;99.90;;;;;;5074024;28;20506;-71
2021/04/06 06:03:59;;;;;;;13.68;2.13;;;1.20;99.90;;;;;;5068970;28;20017;-70
2021/04/06 06:06:25;;;;;;;14.35;2.10;;;1.20;99.90;;;;;;5072093;28;20035;-72
2021/04/06 06:08:59;;;;;;;10.68;1.85;;;1.20;99.90;;;;;;5074444;28;20024;-72
2021/04/06 06:11:26;;;;;;;15.13;1.80;;;1.30;99.90;;;;;;5073594;28;20041;-75
2021/04/06 06:13:52;;;;;;;13.88;1.95;;;1.30;99.90;;;;;;5074198;28;20031;-71
2021/04/06 06:16:31;;;;;;;13.50;1.95;;;1.30;99.90;;;;;;5073893;28;20028;-73
2021/04/06 06:19:06;;;;;;;11.18;2.00;;;1.30;99.90;;;;;;5075110;28;20017;-72
2021/04/06 06:21:43;;;;;;;13.60;3.25;;;1.40;99.90;;;;;;5074808;28;20068;-73
2021/04/06 06:24:12;;;;;;;12.10;1.95;;;1.40;99.90;;;;;;5076801;28;20403;-73
2021/04/06 06:26:38;;;;;;;20.15;2.88;;;1.40;99.90;;;;;;5076641;28;20692;-73
2021/04/06 06:29:12;;;;;;;13.32;2.67;;;1.40;99.90;;;;;;5077336;28;20496;-73
2021/04/06 06:31:46;;;;;;;7.28;1.85;;;1.40;99.90;;;;;;5092624;28;20016;-75
2021/04/06 06:34:32;;;;;;;14.05;2.30;;;1.50;99.90;;;;;;5090852;28;20047;-73
2021/04/06 06:37:04;;;;;;;8.65;1.55;;;1.60;99.90;;;;;;5091494;28;20017;-74
2021/04/06 06:39:34;;;;;;;19.88;1.73;;;1.70;99.90;;;;;;5086324;28;20020;-74
2021/04/06 06:42:09;;;;;;;21.73;1.80;;;1.80;99.90;;;;;;5078328;28;20063;-73
2021/04/06 06:44:36;;;;;;;17.05;1.60;;;1.80;99.90;;;;;;5065472;28;20131;-73
2021/04/06 06:47:23;;;;;;;16.75;1.73;;;2.00;99.90;;;;;;5059205;28;20071;-72
2021/04/06 06:49:53;;;;;;;15.07;2.53;;;2.00;99.90;;;;;;5075794;28;20055;-73
2021/04/06 06:52:26;;;;;;;11.88;1.83;;;2.10;99.90;;;;;;5072754;28;20667;-74
2021/04/06 06:54:57;;;;;;;22.30;1.88;;;2.30;99.90;;;;;;5073894;28;20052;-73
2021/04/06 06:57:27;;;;;;;8.05;1.45;;;2.30;99.90;;;;;;5071757;28;20027;-73
2021/04/06 06:59:53;;;;;;;15.98;1.73;;;2.40;99.90;;;;;;5073610;28;20023;-72
2021/04/06 07:02:23;;;;;;;15.68;1.63;;;2.30;99.90;;;;;;5074443;28;20247;-74
2021/04/06 07:04:53;;;;;;;13.27;1.80;;;2.40;99.90;;;;;;5076218;28;20044;-73
2021/04/06 07:07:19;;;;;;;17.33;1.73;;;2.40;99.90;;;;;;5071809;28;20166;-71
2021/04/06 07:09:46;;;;;;;11.43;2.20;;;2.50;99.90;;;;;;5070621;28;20039;-70
2021/04/06 07:12:14;;;;;;;12.27;1.73;;;2.60;99.90;;;;;;5071508;28;20028;-72
2021/04/06 07:14:41;;;;;;;11.45;2.67;;;2.70;99.90;;;;;;5068223;28;20039;-72
2021/04/06 07:17:09;;;;;;;16.60;2.28;;;2.80;99.90;;;;;;5069713;28;20029;-71
2021/04/06 07:19:45;;;;;;;23.13;2.00;;;2.90;99.90;;;;;;5069755;28;20033;-75
2021/04/06 07:22:14;;;;;;;14.73;2.67;;;3.00;99.90;;;;;;5071738;28;20028;-73
2021/04/06 07:24:41;;;;;;;18.63;2.17;;;3.00;99.90;;;;;;5071785;28;20025;-72
2021/04/06 07:27:13;;;;;;;12.30;1.40;;;3.10;99.90;;;;;;5071515;28;20101;-72
2021/04/06 07:29:40;;;;;;;16.15;2.08;;;3.20;99.90;;;;;;5069678;28;20020;-74
2021/04/06 07:32:13;;;;;;;8.02;1.60;;;3.40;99.90;;;;;;5073362;28;20032;-71
2021/04/06 07:34:41;;;;;;;20.95;2.33;;;3.50;99.90;;;;;;5072028;28;20082;-71
2021/04/06 07:37:07;;;;;;;10.52;1.85;;;3.60;99.90;;;;;;5073581;28;20025;-72
2021/04/06 07:39:34;;;;;;;16.20;1.90;;;3.70;99.90;;;;;;5072444;28;20016;-74
2021/04/06 07:42:00;;;;;;;10.10;1.67;;;3.80;99.90;;;;;;5071699;28;20020;-72
2021/04/06 07:44:25;;;;;;;13.50;1.85;;;3.80;99.90;;;;;;5069542;28;20359;-72
2021/04/06 07:46:52;;;;;;;6.63;1.35;;;3.80;99.90;;;;;;5072654;28;20024;-74
2021/04/06 07:49:21;;;;;;;19.52;2.78;;;3.90;99.90;;;;;;5071269;28;20044;-71
2021/04/06 07:51:46;;;;;;;19.00;2.47;;;3.90;99.90;;;;;;5071729;28;20028;-71
2021/04/06 07:54:16;;;;;;;8.48;1.88;;;3.90;99.90;;;;;;5072142;28;20031;-73
2021/04/06 07:56:49;;;;;;;19.33;1.70;;;4.00;99.90;;;;;;5069490;28;20480;-72
2021/04/06 07:59:20;;;;;;;15.75;1.90;;;4.20;99.90;;;;;;5072217;28;20043;-78
2021/04/06 08:01:54;;;;;;;11.98;2.47;;;4.40;99.90;;;;;;5069693;28;20395;-72
2021/04/06 08:04:48;;;;;;;11.18;1.63;;;4.60;99.90;;;;;;5072581;28;20029;-70
2021/04/06 08:07:19;;;;;;;12.18;1.55;;;4.60;99.90;;;;;;5071632;28;20021;-71
2021/04/06 08:10:11;;;;;;;17.30;1.85;;;4.40;99.90;;;;;;5072523;28;20047;-72
2021/04/06 08:12:38;;;;;;;18.00;1.98;;;4.40;99.90;;;;;;5060735;28;20119;-74
2021/04/06 08:15:03;;;;;;;17.73;1.63;;;4.00;99.90;;;;;;5072280;28;20092;-72
2021/04/06 08:17:30;;;;;;;7.32;1.35;;;3.20;99.90;;;;;;5063868;28;20102;-73
2021/04/06 08:20:06;;;;;;;10.43;1.00;;;2.60;99.90;;;;;;5070833;28;20057;-71
2021/04/06 08:22:53;;;;;;;10.85;1.50;;;2.50;99.90;;;;;;5074307;28;20028;-72
2021/04/06 08:25:19;;;;;;;6.43;1.33;;;2.50;99.90;;;;;;5070774;28;20025;-73
2021/04/06 08:27:46;;;;;;;9.35;1.40;;;2.60;99.90;;;;;;5067584;28;20025;-72
2021/04/06 08:30:21;;;;;;;9.05;1.48;;;2.70;99.90;;;;;;5071736;28;20052;-74
2021/04/06 08:32:56;;;;;;;7.93;1.98;;;2.80;99.90;;;;;;5068964;28;20020;-71
2021/04/06 08:35:44;;;;;;;7.78;1.50;;;2.90;99.90;;;;;;5072570;28;20072;-74
2021/04/06 08:38:23;;;;;;;9.10;1.63;;;2.70;99.90;;;;;;5072395;28;20017;-72
2021/04/06 08:40:54;;;;;;;14.50;1.55;;;2.40;99.90;;;;;;5074127;28;20020;-72
2021/04/06 08:43:22;;;;;;;8.73;1.23;;;2.30;99.90;;;;;;5071559;28;20040;-74
2021/04/06 08:46:04;;;;;;;5.90;1.10;;;2.20;99.90;;;;;;5073351;28;20472;-73
2021/04/06 08:51:27;;;;;;;11.68;1.75;;;2.70;99.90;;;;;;5073086;28;20024;-75
2021/04/06 08:53:58;;;;;;;7.22;1.38;;;3.00;99.90;;;;;;5072044;28;20031;-72
2021/04/06 08:56:35;;;;;;;5.32;1.40;;;3.30;99.90;;;;;;5059187;28;20496;-73
2021/04/06 08:59:31;;;;;;;2.03;1.00;;;3.30;99.90;;;;;;5073390;28;20316;-70
2021/04/06 09:01:59;;;;;;;7.65;1.20;;;3.50;99.90;;;;;;5070475;28;20074;-73
2021/04/06 09:04:28;;;;;;;6.63;0.88;;;3.60;99.90;;;;;;5077363;28;20028;-72
2021/04/06 09:06:54;;;;;;;11.38;1.13;;;3.80;99.90;;;;;;5075428;28;20017;-74
2021/04/06 09:09:24;;;;;;;10.63;1.35;;;3.90;99.90;;;;;;5073750;28;20049;-74
2021/04/06 09:11:51;;;;;;;7.10;0.90;;;4.20;99.90;;;;;;5074742;28;20024;-72
2021/04/06 09:14:17;;;;;;;11.60;1.55;;;4.50;99.90;;;;;;5072922;28;20116;-73
2021/04/06 09:16:43;;;;;;;5.78;1.40;;;4.80;99.90;;;;;;5070947;28;20020;-71
2021/04/06 09:19:14;;;;;;;7.28;1.40;;;5.40;99.90;;;;;;5073662;28;20025;-73
2021/04/06 09:21:42;;;;;;;7.45;1.13;;;5.50;99.90;;;;;;5070373;28;20017;-73
2021/04/06 09:24:12;;;;;;;9.25;1.30;;;5.20;99.90;;;;;;5082385;28;20020;-72
2021/04/06 09:26:38;;;;;;;11.15;1.40;;;5.20;99.90;;;;;;5091662;28;20013;-73
2021/04/06 09:29:12;;;;;;;10.18;1.42;;;4.60;99.90;;;;;;5091519;28;20024;-73
2021/04/06 09:31:44;;;;;;;13.05;1.48;;;3.20;99.90;;;;;;5084192;28;20039;-73
2021/04/06 09:34:17;;;;;;;4.45;1.02;;;2.40;99.90;;;;;;5085942;28;20039;-72
2021/04/06 09:36:50;;;;;;;8.02;1.20;;;2.20;99.90;;;;;;5082538;28;20487;-72
2021/04/06 09:39:18;;;;;;;6.93;1.77;;;2.30;99.90;;;;;;5079854;28;20020;-70
2021/04/06 09:41:44;;;;;;;13.38;1.25;;;2.40;99.90;;;;;;5075214;28;20447;-75
2021/04/06 09:44:14;;;;;;;9.43;1.73;;;2.50;99.90;;;;;;5074696;28;20021;-74
2021/04/06 09:46:49;;;;;;;5.93;1.05;;;2.60;99.90;;;;;;5075210;28;20364;-72
2021/04/06 09:49:16;;;;;;;4.75;1.02;;;2.70;99.90;;;;;;5075168;28;20500;-74
2021/04/06 09:51:52;;;;;;;6.00;1.52;;;2.70;99.90;;;;;;5075856;28;20131;-73
2021/04/06 09:54:30;;;;;;;9.18;1.52;;;2.70;99.90;;;;;;5065037;28;20025;-73
2021/04/06 09:56:58;;;;;;;6.65;1.02;;;3.10;99.90;;;;;;5074443;28;20025;-73
2021/04/06 09:59:24;;;;;;;7.47;1.50;;;3.70;99.90;;;;;;5076050;28;20052;-73
2021/04/06 10:01:52;;;;;;;6.05;1.63;;;3.80;99.90;;;;;;5073311;28;20096;-72
2021/04/06 10:04:51;;;;;;;12.70;1.90;;;4.40;99.90;;;;;;5073670;28;20032;-73
2021/04/06 10:07:26;;;;;;;7.93;1.42;;;4.80;99.90;;;;;;5063219;28;20036;-72
2021/04/06 10:09:57;;;;;;;10.18;1.48;;;4.30;99.90;;;;;;5073553;28;20021;-72
2021/04/06 10:12:25;;;;;;;5.65;1.35;;;4.70;99.90;;;;;;5075832;28;20053;-73
2021/04/06 10:14:53;;;;;;;11.68;1.23;;;4.70;99.90;;;;;;5079865;28;20072;-73
2021/04/06 10:17:33;;;;;;;9.02;1.52;;;5.30;99.90;;;;;;5070552;28;20027;-72
2021/04/06 10:20:07;;;;;;;6.47;1.27;;;5.10;99.90;;;;;;5077551;28;20047;-75
2021/04/06 10:22:46;;;;;;;12.02;1.25;;;5.50;99.90;;;;;;5078044;28;20028;-73
2021/04/06 10:25:17;;;;;;;7.78;1.63;;;5.80;99.90;;;;;;5060653;28;20020;-75
2021/04/06 10:27:46;;;;;;;10.93;2.05;;;5.60;99.90;;;;;;5072411;28;20025;-72
2021/04/06 10:30:16;;;;;;;12.45;1.75;;;5.10;99.90;;;;;;5073420;28;20024;-74
2021/04/06 10:32:47;;;;;;;7.05;1.85;;;4.40;99.90;;;;;;5074098;28;20025;-74
2021/04/06 10:35:25;;;;;;;10.00;3.15;;;4.00;99.90;;;;;;5074552;28;20017;-71
2021/04/06 10:37:54;;;;;;;7.63;1.63;;;3.40;99.90;;;;;;5074940;28;20021;-72
2021/04/06 10:40:20;;;;;;;5.50;1.40;;;2.60;99.90;;;;;;5074706;28;20024;-74
2021/04/06 10:42:50;;;;;;;10.10;1.70;;;2.20;99.90;;;;;;5073705;28;20024;-73
2021/04/06 10:45:18;;;;;;;4.45;1.08;;;2.30;99.90;;;;;;5071374;28;20020;-72
2021/04/06 10:47:43;;;;;;;10.98;2.03;;;2.40;99.90;;;;;;5072560;28;20086;-71
2021/04/06 10:50:10;;;;;;;10.10;1.50;;;2.50;99.90;;;;;;5068943;28;20037;-71
2021/04/06 10:52:35;;;;;;;7.57;1.98;;;2.60;99.90;;;;;;5070505;28;20510;-73
2021/04/06 10:55:04;;;;;;;11.60;1.48;;;2.50;99.90;;;;;;5071834;28;20055;-73
2021/04/06 10:57:36;;;;;;;20.52;1.75;;;2.60;99.90;;;;;;5070725;28;20024;-74
2021/04/06 11:00:26;;;;;;;7.68;1.67;;;2.50;99.90;;;;;;5071882;28;20055;-71
2021/04/06 11:03:17;;;;;;;16.00;1.45;;;2.70;99.90;;;;;;5073487;28;20035;-71
2021/04/06 11:05:44;;;;;;;10.15;1.85;;;2.80;99.90;;;;;;5072029;28;20559;-74
2021/04/06 11:08:25;;;;;;;6.47;1.48;;;2.80;99.90;;;;;;5070852;28;20139;-73
2021/04/06 11:10:56;;;;;;;11.95;1.98;;;3.30;99.90;;;;;;5069002;28;20036;-74
2021/04/06 11:13:23;;;;;;;10.00;2.13;;;3.70;99.90;;;;;;5071371;28;20029;-73
2021/04/06 11:15:51;;;;;;;13.07;1.65;;;4.10;99.90;;;;;;5073963;28;20531;-72
2021/04/06 11:18:17;;;;;;;6.50;1.65;;;4.50;99.90;;;;;;5076161;28;20032;-72
2021/04/06 11:20:43;;;;;;;10.55;1.80;;;4.70;99.90;;;;;;5075081;28;20040;-74
2021/04/06 11:23:08;;;;;;;5.82;1.40;;;3.70;99.90;;;;;;5070723;28;20028;-71
2021/04/06 11:25:34;;;;;;;2.97;1.00;;;3.10;99.90;;;;;;5073060;28;20028;-74
2021/04/06 11:28:00;;;;;;;5.57;0.70;;;2.50;99.90;;;;;;5072710;28;20078;-74
2021/04/06 11:30:33;;;;;;;3.00;0.90;;;2.30;99.90;;;;;;5072735;28;20021;-73
2021/04/06 11:33:00;;;;;;;6.28;1.33;;;2.20;99.90;;;;;;5074607;28;20024;-74
2021/04/06 11:35:26;;;;;;;4.85;1.05;;;2.10;99.90;;;;;;5070031;28;20028;-74
2021/04/06 11:37:52;;;;;;;5.57;1.10;;;2.30;99.90;;;;;;5071910;28;20017;-73
2021/04/06 11:40:18;;;;;;;5.63;1.10;;;2.40;99.90;;;;;;5068101;28;20028;-73
2021/04/06 11:42:44;;;;;;;7.18;0.88;;;3.40;99.90;;;;;;5071185;28;20032;-74
2021/04/06 11:45:10;;;;;;;4.78;0.95;;;3.80;99.90;;;;;;5071204;28;20527;-73
2021/04/06 11:47:36;;;;;;;7.63;1.13;;;4.10;99.90;;;;;;5071208;28;20021;-72
2021/04/06 11:50:06;;;;;;;5.03;1.10;;;4.60;99.90;;;;;;5071146;28;20029;-74
2021/04/06 11:52:32;;;;;;;5.30;1.08;;;4.70;99.90;;;;;;5068677;28;20033;-75
2021/04/06 11:54:58;;;;;;;7.72;1.38;;;5.10;99.90;;;;;;5071634;28;20017;-72
2021/04/06 11:57:24;;;;;;;7.25;1.13;;;5.30;99.90;;;;;;5071935;28;20024;-73
2021/04/06 11:59:52;;;;;;;5.93;1.17;;;5.50;99.90;;;;;;5070388;28;20017;-73
2021/04/06 12:02:17;;;;;;;5.85;1.67;;;5.30;99.90;;;;;;5072024;28;20038;-71
2021/04/06 12:04:43;;;;;;;11.82;1.20;;;4.90;99.90;;;;;;5071236;28;20024;-73
2021/04/06 12:07:09;;;;;;;3.80;0.88;;;3.60;99.90;;;;;;5070991;28;20017;-74
2021/04/06 12:09:34;;;;;;;6.25;1.20;;;2.30;99.90;;;;;;5071578;28;20121;-75
2021/04/06 12:12:01;;;;;;;5.35;1.00;;;2.10;99.90;;;;;;5072897;28;20074;-78
2021/04/06 12:14:27;;;;;;;6.72;1.15;;;1.90;99.90;;;;;;5067301;28;20024;-73
2021/04/06 12:16:53;;;;;;;6.18;1.58;;;1.90;99.90;;;;;;5070999;28;20025;-76
2021/04/06 12:19:18;;;;;;;15.88;1.88;;;1.90;99.90;;;;;;5071572;28;20413;-74
2021/04/06 12:21:44;;;;;;;7.38;1.45;;;2.10;99.90;;;;;;5067881;28;20306;-75
2021/04/06 12:24:10;;;;;;;3.50;1.05;;;2.10;99.90;;;;;;5071462;28;20417;-73
2021/04/06 12:26:36;;;;;;;10.88;1.73;;;2.40;99.90;;;;;;5072512;28;20039;-76
2021/04/06 12:29:02;;;;;;;7.30;1.20;;;2.50;99.90;;;;;;5071008;28;20016;-74
2021/04/06 12:31:28;;;;;;;10.88;1.63;;;2.60;99.90;;;;;;5072090;28;20031;-75
2021/04/06 12:33:54;;;;;;;12.35;1.60;;;2.60;99.90;;;;;;5071323;28;20024;-73
2021/04/06 12:36:22;;;;;;;5.05;1.10;;;2.80;99.90;;;;;;5078329;28;20046;-75
2021/04/06 12:38:48;;;;;;;6.60;1.25;;;2.80;99.90;;;;;;5085816;28;20032;-75
2021/04/06 12:41:14;;;;;;;5.95;1.58;;;2.80;99.90;;;;;;5080272;28;20052;-73
2021/04/06 12:43:40;;;;;;;11.35;1.25;;;2.60;99.90;;;;;;5073036;28;20089;-73
2021/04/06 12:46:05;;;;;;;7.20;1.17;;;2.40;99.90;;;;;;5072106;28;20032;-73
2021/04/06 12:48:32;;;;;;;9.80;1.30;;;1.80;99.90;;;;;;5066794;28;20448;-72
2021/04/06 12:50:58;;;;;;;7.00;0.95;;;1.60;99.90;;;;;;5074874;28;20076;-76
2021/04/06 12:53:23;;;;;;;7.32;1.13;;;1.50;99.90;;;;;;5074636;28;20063;-73
2021/04/06 12:55:49;;;;;;;5.55;1.50;;;1.60;99.90;;;;;;5075854;28;20051;-72
2021/04/06 12:58:15;;;;;;;8.27;1.25;;;1.90;99.90;;;;;;5080123;28;20032;-74
2021/04/06 13:00:46;;;;;;;3.97;0.70;;;2.50;99.90;;;;;;5078099;28;20025;-75
2021/04/06 13:03:11;;;;;;;5.38;1.48;;;2.80;99.90;;;;;;5070919;28;20095;-73
2021/04/06 13:05:37;;;;;;;3.50;0.90;;;2.80;99.90;;;;;;5084280;28;20055;-73